createdAt,value
2023-08-04T04:04:25.031Z,16.52
2023-08-04T04:08:27.668Z,16.54
2023-08-04T04:12:30.481Z,16.54
2023-08-04T04:16:33.193Z,16.49
2023-08-04T04:20:37.163Z,16.39
2023-08-04T04:24:39.835Z,16.41
2023-08-04T04:28:42.464Z,16.40
2023-08-04T04:32:45.222Z,16.53
2023-08-04T04:36:49.291Z,16.68
2023-08-04T04:40:56.652Z,16.84
2023-08-04T04:44:59.270Z,16.89
2023-08-04T04:49:01.911Z,16.96
2023-08-04T04:53:05.867Z,17.12
2023-08-04T04:57:08.785Z,17.22
2023-08-04T05:01:11.393Z,17.41
2023-08-04T05:05:13.978Z,17.53
2023-08-04T05:09:18.033Z,17.25
2023-08-04T05:13:20.913Z,17.34
2023-08-04T05:17:23.533Z,17.43
2023-08-04T05:21:26.213Z,17.41
2023-08-04T05:25:30.156Z,17.52
2023-08-04T05:29:34.120Z,17.48
2023-08-04T05:33:36.962Z,17.55
2023-08-04T05:37:39.563Z,17.54
2023-08-04T05:41:45.602Z,17.60
2023-08-04T05:45:49.759Z,17.33
2023-08-04T05:49:52.544Z,17.21
2023-08-04T05:53:55.163Z,17.56
2023-08-04T05:57:59.127Z,17.68
2023-08-04T06:02:02.489Z,17.63
2023-08-04T06:06:05.363Z,17.77
2023-08-04T06:10:09.254Z,17.82
2023-08-04T06:14:22.717Z,18.12
2023-08-04T06:18:28.694Z,18.07
2023-08-04T06:22:31.325Z,18.11
2023-08-04T06:26:33.962Z,18.12
2023-08-04T06:30:38.336Z,17.89
2023-08-04T06:34:40.937Z,17.90
2023-08-04T06:38:43.575Z,17.82
2023-08-04T06:42:46.240Z,18.01
2023-08-04T06:46:50.426Z,17.88
2023-08-04T06:50:53.964Z,17.75
2023-08-04T06:54:56.593Z,17.84
2023-08-04T06:58:59.176Z,17.96
2023-08-04T07:03:03.232Z,18.14
2023-08-04T07:07:06.805Z,18.17
2023-08-04T07:11:15.330Z,18.23
2023-08-04T07:15:17.927Z,18.27
2023-08-04T07:19:21.872Z,18.37
2023-08-04T07:23:24.492Z,18.26
2023-08-04T07:27:27.080Z,18.43
2023-08-04T07:31:29.863Z,18.44
2023-08-04T07:35:33.923Z,18.40
2023-08-04T07:39:36.544Z,18.37
2023-08-04T07:43:39.169Z,18.37
2023-08-04T07:47:41.857Z,18.48
2023-08-04T07:51:46.718Z,18.32
2023-08-04T07:55:56.525Z,18.33
2023-08-04T07:59:59.141Z,18.23
2023-08-04T08:04:02.973Z,18.34
2023-08-04T08:08:07.104Z,18.49
2023-08-04T08:12:10.251Z,18.49
2023-08-04T08:16:18.228Z,18.82
2023-08-04T08:20:22.007Z,18.68
2023-08-04T08:24:26.074Z,18.51
2023-08-04T08:28:28.669Z,18.61
2023-08-04T08:32:31.309Z,18.78
2023-08-04T08:36:34.085Z,19.33
2023-08-04T08:40:38.108Z,19.77
2023-08-04T08:44:40.888Z,20.19
2023-08-04T08:48:46.487Z,20.21
2023-08-04T08:52:58.894Z,20.49
2023-08-04T08:57:03.136Z,20.47
2023-08-04T09:01:05.775Z,20.58
2023-08-04T09:05:09.750Z,20.80
2023-08-04T09:09:12.412Z,21.16
2023-08-04T09:13:16.651Z,21.37
2023-08-04T09:17:32.908Z,21.87
2023-08-04T09:21:36.813Z,22.43
2023-08-04T09:25:53.375Z,22.66
2023-08-04T09:30:00.583Z,22.60
2023-08-04T09:34:06.212Z,22.86
2023-08-04T09:38:09.177Z,22.53
2023-08-04T09:42:11.740Z,22.77
2023-08-04T09:46:17.883Z,22.79
2023-08-04T09:50:21.584Z,22.60
2023-08-04T09:54:24.402Z,22.69
2023-08-04T09:58:27.759Z,23.07
2023-08-04T10:02:32.296Z,23.19
2023-08-04T10:06:35.726Z,23.55
2023-08-04T10:10:38.513Z,23.13
2023-08-04T10:14:41.600Z,23.15
2023-08-04T10:18:50.694Z,23.32
2023-08-04T10:22:54.423Z,23.46
2023-08-04T10:26:57.202Z,23.89
2023-08-04T10:31:06.179Z,24.02
2023-08-04T10:35:18.341Z,23.86
2023-08-04T10:39:30.848Z,23.42
2023-08-04T10:43:34.340Z,23.06
2023-08-04T10:47:52.069Z,23.08
2023-08-04T10:52:06.949Z,22.78
2023-08-04T10:56:09.755Z,22.30
2023-08-04T11:00:13.015Z,22.30
2023-08-04T11:04:15.848Z,22.42
2023-08-04T11:08:20.889Z,22.68
2023-08-04T11:12:23.803Z,22.43
2023-08-04T11:16:26.635Z,22.73
2023-08-04T11:20:33.188Z,23.02
2023-08-04T11:24:45.893Z,23.23
2023-08-04T11:28:48.690Z,23.68
2023-08-04T11:32:52.042Z,24.37
2023-08-04T11:36:54.737Z,24.96
2023-08-04T11:41:01.687Z,24.72
2023-08-04T11:45:09.727Z,25.04
2023-08-04T11:49:12.954Z,24.71
2023-08-04T11:53:16.945Z,24.80
2023-08-04T11:57:21.975Z,24.96
2023-08-04T12:01:29.959Z,25.18
2023-08-04T12:05:34.172Z,25.17
2023-08-04T12:09:37.275Z,25.35
2023-08-04T12:13:42.987Z,25.21
2023-08-04T12:17:46.114Z,25.54
2023-08-04T12:21:49.811Z,25.79
2023-08-04T12:25:53.040Z,25.76
2023-08-04T12:29:57.104Z,24.84
2023-08-04T12:34:00.132Z,25.15
2023-08-04T12:38:05.281Z,25.58
2023-08-04T12:42:08.754Z,25.55
2023-08-04T12:46:12.711Z,25.38
2023-08-04T12:50:15.478Z,24.76
2023-08-04T12:54:18.283Z,24.61
2023-08-04T12:58:20.777Z,25.25
2023-08-04T13:02:25.051Z,25.26
2023-08-04T13:06:27.782Z,24.97
2023-08-04T13:10:33.055Z,25.23
2023-08-04T13:14:36.495Z,24.30
2023-08-04T13:18:40.489Z,24.77
2023-08-04T13:22:44.140Z,25.45
2023-08-04T13:26:46.945Z,25.12
2023-08-04T13:30:49.553Z,25.18
2023-08-04T13:34:53.533Z,25.24
2023-08-04T13:38:56.185Z,25.17
2023-08-04T13:42:58.844Z,24.89
2023-08-04T13:47:01.494Z,24.49
2023-08-04T13:51:16.499Z,24.11
2023-08-04T13:55:23.909Z,24.58
2023-08-04T13:59:26.652Z,25.40
2023-08-04T14:03:29.169Z,25.25
2023-08-04T14:07:33.142Z,25.82
2023-08-04T14:11:35.784Z,25.18
2023-08-04T14:15:38.465Z,25.37
2023-08-04T14:19:41.159Z,26.70
2023-08-04T14:23:45.140Z,27.43
2023-08-04T14:27:47.905Z,26.62
2023-08-04T14:31:50.722Z,25.95
2023-08-04T14:35:53.533Z,25.47
2023-08-04T14:39:57.535Z,25.61
2023-08-04T14:44:00.609Z,25.88
2023-08-04T14:48:03.663Z,26.77
2023-08-04T14:52:07.332Z,26.87
2023-08-04T14:56:11.725Z,26.20
2023-08-04T15:00:15.086Z,25.85
2023-08-04T15:04:17.893Z,26.12
2023-08-04T15:08:20.627Z,26.88
2023-08-04T15:12:25.498Z,28.23
2023-08-04T15:16:28.139Z,28.15
2023-08-04T15:20:30.758Z,28.51
2023-08-04T15:24:33.450Z,28.36
2023-08-04T15:28:37.326Z,27.22
2023-08-04T15:32:40.117Z,27.15
2023-08-04T15:36:42.836Z,26.98
2023-08-04T15:40:46.817Z,26.45
2023-08-04T15:44:50.796Z,24.96
2023-08-04T15:48:53.488Z,24.62
2023-08-04T15:52:55.983Z,24.67
2023-08-04T15:56:58.603Z,24.61
2023-08-04T16:01:03.421Z,24.58
2023-08-04T16:05:06.521Z,23.90
2023-08-04T16:09:10.508Z,23.66
2023-08-04T16:13:13.199Z,23.81
2023-08-04T16:17:17.042Z,24.12
2023-08-04T16:21:19.741Z,24.08
2023-08-04T16:25:22.406Z,24.38
2023-08-04T16:29:25.163Z,24.44
2023-08-04T16:33:29.008Z,25.04
2023-08-04T16:37:31.651Z,25.22
2023-08-04T16:41:34.338Z,25.58
2023-08-04T16:45:37.003Z,25.83
2023-08-04T16:49:41.040Z,25.67
2023-08-04T16:53:43.690Z,25.23
2023-08-04T16:57:46.377Z,25.00
2023-08-04T17:01:49.072Z,24.80
2023-08-04T17:05:52.943Z,24.53
2023-08-04T17:09:58.918Z,24.12
2023-08-04T17:14:01.591Z,23.73
2023-08-04T17:18:06.047Z,23.76
2023-08-04T17:22:10.062Z,23.87
2023-08-04T17:26:12.782Z,23.93
2023-08-04T17:30:17.264Z,23.41
2023-08-04T17:34:19.964Z,22.90
2023-08-04T17:38:24.086Z,22.77
2023-08-04T17:42:26.884Z,22.64
2023-08-04T17:46:29.935Z,22.49
2023-08-04T17:50:32.653Z,22.82
2023-08-04T17:54:36.826Z,23.32
2023-08-04T17:58:40.352Z,22.77
2023-08-04T18:02:43.343Z,22.03
2023-08-04T18:06:46.259Z,21.56
2023-08-04T18:10:51.007Z,21.27
2023-08-04T18:14:53.637Z,21.27
2023-08-04T18:18:56.324Z,21.32
2023-08-04T18:22:59.116Z,21.19
2023-08-04T18:27:03.177Z,21.06
2023-08-04T18:31:05.880Z,20.91
2023-08-04T18:35:09.565Z,19.89
2023-08-04T18:39:12.349Z,19.40
2023-08-04T18:43:16.302Z,18.71
2023-08-04T18:47:19.159Z,18.38
2023-08-04T18:51:21.906Z,18.15
2023-08-04T18:55:24.571Z,17.77
2023-08-04T18:59:28.581Z,17.72
2023-08-04T19:03:31.370Z,17.59
2023-08-04T19:07:34.114Z,17.58
2023-08-04T19:11:36.968Z,17.62
2023-08-04T19:15:41.149Z,17.63
2023-08-04T19:19:43.895Z,17.49
2023-08-04T19:23:47.782Z,17.45
2023-08-04T19:27:50.437Z,17.34
2023-08-04T19:31:54.469Z,17.13
2023-08-04T19:35:59.495Z,16.98
2023-08-04T19:40:02.185Z,16.92
2023-08-04T19:44:05.061Z,16.85
2023-08-04T19:48:10.507Z,16.85
2023-08-04T19:52:13.151Z,16.86
2023-08-04T19:56:15.940Z,16.83
2023-08-04T20:00:18.757Z,16.69
2023-08-04T20:04:22.826Z,16.52
2023-08-04T20:08:25.564Z,16.34
2023-08-04T20:12:28.226Z,16.28
2023-08-04T20:16:30.943Z,16.11
2023-08-04T20:20:35.038Z,15.83
2023-08-04T20:24:37.714Z,15.81
2023-08-04T20:28:42.814Z,15.77
2023-08-04T20:32:45.503Z,15.66
2023-08-04T20:36:49.821Z,15.66
2023-08-04T20:41:00.741Z,15.63
2023-08-04T20:45:04.451Z,15.52
2023-08-04T20:49:07.291Z,15.49
2023-08-04T20:53:11.318Z,15.41
2023-08-04T20:57:14.049Z,15.37
